createdAt,value
2019-04-26T00:00:11.967Z,73.8827
2019-04-26T00:01:15.995Z,74.0887
2019-04-26T00:02:19.355Z,73.8766
2019-04-26T00:03:22.295Z,74.0139
2019-04-26T00:04:25.378Z,73.8766
2019-04-26T00:05:34.408Z,73.8857
2019-04-26T00:06:36.310Z,73.8689
2019-04-26T00:07:39.317Z,73.7850
2019-04-26T00:08:42.281Z,73.9635
2019-04-26T00:09:45.301Z,74.0795
2019-04-26T00:10:48.307Z,74.1833
2019-04-26T00:11:51.334Z,74.2336
2019-04-26T00:12:54.282Z,74.4869
2019-04-26T00:13:57.291Z,74.5449
2019-04-26T00:15:00.282Z,74.6593
2019-04-26T00:16:03.372Z,74.8714
2019-04-26T00:17:06.344Z,74.5769
2019-04-26T00:18:10.222Z,74.6334
2019-04-26T00:19:14.328Z,74.8943
2019-04-26T00:20:17.292Z,74.9294
2019-04-26T00:21:20.351Z,75.0042
2019-04-26T00:22:23.294Z,74.9081
2019-04-26T00:23:26.303Z,74.9615
2019-04-26T00:24:29.268Z,75.1110
2019-04-26T00:25:32.295Z,75.1842
2019-04-26T00:26:34.341Z,75.3353
2019-04-26T00:27:37.306Z,74.9126
2019-04-26T00:28:40.324Z,74.9477
2019-04-26T00:29:43.316Z,74.6105
2019-04-26T00:30:46.358Z,74.5907
2019-04-26T00:31:49.332Z,74.3709
2019-04-26T00:32:52.297Z,74.7646
2019-04-26T00:33:54.291Z,74.3587
2019-04-26T00:34:57.281Z,74.2809
2019-04-26T00:36:00.344Z,74.0963
2019-04-26T00:37:03.305Z,74.2290
2019-04-26T00:38:06.335Z,74.3267
2019-04-26T00:39:09.262Z,74.1115
2019-04-26T00:40:13.239Z,74.0475
2019-04-26T00:41:18.407Z,73.8491
2019-04-26T00:42:21.363Z,73.8964
2019-04-26T00:43:24.300Z,73.9696
2019-04-26T00:44:27.318Z,73.9452
2019-04-26T00:45:30.284Z,73.9239
2019-04-26T00:46:33.306Z,74.0414
2019-04-26T00:47:36.339Z,74.0749
2019-04-26T00:48:39.287Z,73.8735
2019-04-26T00:49:43.751Z,74.0520
2019-04-26T00:50:47.279Z,73.7911
2019-04-26T00:51:50.306Z,74.2397
2019-04-26T00:52:53.419Z,73.8232
2019-04-26T00:53:56.280Z,73.8735
2019-04-26T00:54:59.294Z,74.0505
2019-04-26T00:56:02.282Z,73.7499
2019-04-26T00:57:05.335Z,73.9864
2019-04-26T00:58:08.309Z,74.0963
2019-04-26T00:59:11.311Z,73.8415
2019-04-26T01:00:15.391Z,73.9925
2019-04-26T01:01:19.327Z,74.2336
2019-04-26T01:02:22.765Z,74.5006
2019-04-26T01:03:26.334Z,73.9559
2019-04-26T01:04:29.333Z,73.9040
2019-04-26T01:05:32.272Z,74.3023
2019-04-26T01:06:35.333Z,74.3801
2019-04-26T01:07:38.351Z,74.4503
2019-04-26T01:08:41.333Z,74.3496
2019-04-26T01:09:44.313Z,74.6929
2019-04-26T01:10:47.318Z,74.9249
2019-04-26T01:11:50.295Z,75.2026
2019-04-26T01:12:53.339Z,76.1852
2019-04-26T01:13:56.275Z,76.5759
2019-04-26T01:14:59.326Z,77.1939
2019-04-26T01:16:02.277Z,77.0001
2019-04-26T01:17:05.295Z,77.6013
2019-04-26T01:18:08.342Z,77.8622
2019-04-26T01:19:11.290Z,78.5931
2019-04-26T01:20:14.353Z,79.3362
2019-04-26T01:21:18.434Z,80.2457
2019-04-26T01:22:21.317Z,81.0574
2019-04-26T01:23:25.090Z,81.7151
2019-04-26T01:24:28.335Z,82.2019
2019-04-26T01:25:31.286Z,81.6373
2019-04-26T01:26:34.270Z,82.9801
2019-04-26T01:27:37.305Z,82.5803
2019-04-26T01:28:40.291Z,83.1571
2019-04-26T01:29:43.323Z,83.7125
2019-04-26T01:30:46.292Z,84.1337
2019-04-26T01:31:49.294Z,85.0996
2019-04-26T01:32:52.334Z,84.8569
2019-04-26T01:33:55.290Z,85.4337
2019-04-26T01:34:58.318Z,84.3534
2019-04-26T01:36:12.105Z,85.9266
2019-04-26T01:37:08.285Z,85.4688
2019-04-26T01:38:11.329Z,86.2440
2019-04-26T01:39:14.286Z,85.8824
2019-04-26T01:40:17.310Z,86.1555
2019-04-26T01:41:21.289Z,86.0609
2019-04-26T01:42:26.313Z,85.5253
2019-04-26T01:43:29.329Z,86.6911
2019-04-26T01:44:34.304Z,86.2379
2019-04-26T01:45:37.303Z,86.0471
2019-04-26T01:46:40.297Z,85.3132
2019-04-26T01:47:42.274Z,85.5375
2019-04-26T01:48:45.337Z,86.3767
2019-04-26T01:49:48.272Z,86.4363
2019-04-26T01:50:51.305Z,85.8137
2019-04-26T01:51:54.295Z,86.3859
2019-04-26T01:52:57.306Z,86.0609
2019-04-26T01:54:00.308Z,86.1509
2019-04-26T01:55:03.312Z,85.3681
2019-04-26T01:56:06.284Z,85.9815
2019-04-26T01:57:09.300Z,85.8305
2019-04-26T01:58:12.307Z,85.4185
2019-04-26T01:59:15.324Z,85.9190
2019-04-26T02:00:18.336Z,85.9648
2019-04-26T02:01:22.321Z,86.0792
2019-04-26T02:02:26.314Z,86.5675
2019-04-26T02:03:29.847Z,86.6423
2019-04-26T02:04:33.347Z,86.9673
2019-04-26T02:05:36.266Z,86.9474
2019-04-26T02:06:39.302Z,86.5049
2019-04-26T02:07:42.306Z,87.0039
2019-04-26T02:08:45.346Z,86.6789
2019-04-26T02:09:48.333Z,87.5669
2019-04-26T02:10:51.344Z,86.7979
2019-04-26T02:11:54.322Z,86.6423
2019-04-26T02:12:57.293Z,86.6285
2019-04-26T02:14:00.311Z,87.0588
2019-04-26T02:15:03.318Z,87.2923
2019-04-26T02:16:06.306Z,87.4708
2019-04-26T02:17:09.290Z,87.9728
2019-04-26T02:18:12.282Z,87.9881
2019-04-26T02:19:15.307Z,87.6997
2019-04-26T02:20:18.355Z,87.5212
2019-04-26T02:21:21.281Z,87.2953
2019-04-26T02:22:24.493Z,88.0293
2019-04-26T02:23:27.922Z,87.6616
2019-04-26T02:24:32.163Z,87.9194
2019-04-26T02:25:35.301Z,88.0827
2019-04-26T02:26:38.289Z,87.4708
2019-04-26T02:27:41.327Z,87.7455
2019-04-26T02:28:44.278Z,87.7043
2019-04-26T02:29:47.361Z,87.1534
2019-04-26T02:30:50.305Z,87.0207
2019-04-26T02:31:53.432Z,87.9240
2019-04-26T02:32:56.337Z,87.7806
2019-04-26T02:33:59.303Z,86.7384
2019-04-26T02:35:02.360Z,86.5858
2019-04-26T02:36:05.293Z,86.9978
2019-04-26T02:37:08.317Z,87.5578
2019-04-26T02:38:11.349Z,87.2602
2019-04-26T02:39:14.291Z,87.9973
2019-04-26T02:40:17.439Z,88.3299
2019-04-26T02:41:20.286Z,88.2612
2019-04-26T02:42:23.316Z,88.3131
2019-04-26T02:43:28.094Z,87.5807
2019-04-26T02:44:34.481Z,87.1077
2019-04-26T02:45:38.314Z,87.1824
2019-04-26T02:46:41.286Z,87.2404
2019-04-26T02:47:44.311Z,87.2679
2019-04-26T02:48:47.308Z,87.0207
2019-04-26T02:49:50.338Z,86.7369
2019-04-26T02:50:53.384Z,86.8009
2019-04-26T02:51:56.356Z,87.2099
2019-04-26T02:52:59.271Z,87.1260
2019-04-26T02:54:02.364Z,87.2328
2019-04-26T02:55:05.301Z,87.6524
2019-04-26T02:56:08.371Z,87.9774
2019-04-26T02:57:11.295Z,87.9637
2019-04-26T02:58:14.310Z,87.3838
2019-04-26T02:59:16.315Z,88.1163
2019-04-26T03:00:19.291Z,87.8279
2019-04-26T03:01:22.333Z,87.6753
2019-04-26T03:02:25.311Z,87.8309
2019-04-26T03:03:29.837Z,87.9927
2019-04-26T03:04:34.625Z,87.9408
2019-04-26T03:05:39.685Z,88.2887
2019-04-26T03:06:43.318Z,88.2338
2019-04-26T03:07:46.288Z,88.2750
2019-04-26T03:08:49.332Z,88.1422
2019-04-26T03:09:52.309Z,87.8462
2019-04-26T03:10:54.312Z,88.0552
2019-04-26T03:11:57.325Z,88.7938
2019-04-26T03:13:00.323Z,88.6870
2019-04-26T03:14:03.294Z,88.6244
2019-04-26T03:15:13.715Z,88.7846
2019-04-26T03:16:14.305Z,88.7144
2019-04-26T03:17:17.341Z,88.6244
2019-04-26T03:18:20.337Z,88.9113
2019-04-26T03:19:23.301Z,89.2958
2019-04-26T03:20:26.307Z,89.6071
2019-04-26T03:21:31.979Z,90.3166
2019-04-26T03:22:36.670Z,90.1747
2019-04-26T03:23:52.828Z,89.8146
2019-04-26T03:24:48.752Z,89.3523
2019-04-26T03:25:52.313Z,89.3050
2019-04-26T03:26:55.341Z,89.7734
2019-04-26T03:27:58.305Z,90.1381
2019-04-26T03:29:01.291Z,90.3914
2019-04-26T03:30:18.663Z,90.9133
2019-04-26T03:31:12.279Z,91.2322
2019-04-26T03:32:16.583Z,91.3695
2019-04-26T03:33:20.406Z,91.8288
2019-04-26T03:34:23.289Z,92.1996
2019-04-26T03:35:26.291Z,92.6787
2019-04-26T03:36:29.329Z,92.7169
2019-04-26T03:37:34.146Z,92.6070
2019-04-26T03:38:39.681Z,92.8771
2019-04-26T03:39:44.376Z,92.7306
2019-04-26T03:40:47.305Z,92.7382
2019-04-26T03:41:50.299Z,92.6558
2019-04-26T03:42:53.297Z,93.2967
2019-04-26T03:43:56.321Z,92.1263
2019-04-26T03:44:59.380Z,92.0439
2019-04-26T03:46:02.318Z,91.0445
2019-04-26T03:47:05.291Z,91.8288
2019-04-26T03:48:08.329Z,92.2667
2019-04-26T03:49:11.274Z,92.0836
2019-04-26T03:50:14.306Z,92.6421
2019-04-26T03:51:17.313Z,92.5658
2019-04-26T03:52:20.290Z,92.6787
2019-04-26T03:53:23.356Z,92.6970
2019-04-26T03:54:26.271Z,92.9259
2019-04-26T03:55:29.319Z,93.2387
2019-04-26T03:56:32.314Z,92.5978
2019-04-26T03:57:36.909Z,92.5429
2019-04-26T03:58:41.924Z,93.4981
2019-04-26T03:59:46.320Z,93.7148
2019-04-26T04:00:49.343Z,93.9651
2019-04-26T04:01:52.298Z,94.2641
2019-04-26T04:02:55.357Z,93.8186
2019-04-26T04:03:58.267Z,93.7133
2019-04-26T04:05:01.321Z,93.8201
2019-04-26T04:06:04.281Z,93.9345
2019-04-26T04:07:07.323Z,94.5205
2019-04-26T04:08:10.334Z,94.5739
2019-04-26T04:09:13.317Z,94.2962
2019-04-26T04:10:16.288Z,94.4930
2019-04-26T04:11:19.265Z,94.3832
2019-04-26T04:12:22.410Z,94.5006
2019-04-26T04:13:25.330Z,94.7707
2019-04-26T04:14:28.376Z,94.2306
2019-04-26T04:15:31.328Z,94.4778
2019-04-26T04:16:34.325Z,94.4930
2019-04-26T04:17:39.010Z,94.4457
2019-04-26T04:18:45.435Z,94.9096
2019-04-26T04:19:48.297Z,95.0042
2019-04-26T04:20:51.340Z,95.1370
2019-04-26T04:21:54.372Z,95.3796
2019-04-26T04:22:57.280Z,94.7906
2019-04-26T04:24:00.392Z,95.1690
2019-04-26T04:25:02.323Z,94.8577
2019-04-26T04:26:05.299Z,95.2850
2019-04-26T04:27:08.320Z,95.5093
2019-04-26T04:28:11.312Z,95.5993
2019-04-26T04:29:14.366Z,95.6054
2019-04-26T04:30:17.349Z,95.5779
2019-04-26T04:31:20.328Z,95.4894
2019-04-26T04:32:25.330Z,95.6222
2019-04-26T04:33:28.306Z,95.8022
2019-04-26T04:34:31.295Z,95.6130
2019-04-26T04:35:34.309Z,95.6558
2019-04-26T04:36:37.291Z,95.7000
2019-04-26T04:37:54.533Z,95.7427
2019-04-26T04:38:49.529Z,95.8465
2019-04-26T04:39:53.484Z,95.8740
2019-04-26T04:40:56.349Z,96.0082
2019-04-26T04:41:59.288Z,95.9838
2019-04-26T04:43:02.468Z,95.8511
2019-04-26T04:44:05.360Z,95.9609
2019-04-26T04:45:08.318Z,95.8419
2019-04-26T04:46:11.364Z,96.1685
2019-04-26T04:47:23.792Z,96.0906
2019-04-26T04:48:22.314Z,96.0220
2019-04-26T04:49:25.350Z,96.1807
2019-04-26T04:50:27.301Z,96.0113
2019-04-26T04:51:30.341Z,95.9533
2019-04-26T04:52:33.323Z,95.9030
2019-04-26T04:53:36.300Z,95.1705
2019-04-26T04:54:39.354Z,94.9630
2019-04-26T04:55:43.510Z,94.7997
2019-04-26T04:56:47.854Z,95.7198
2019-04-26T04:57:50.394Z,95.0362
2019-04-26T04:58:53.329Z,94.5785
2019-04-26T04:59:56.373Z,94.5891
2019-04-26T05:00:59.308Z,94.3236
2019-04-26T05:02:02.338Z,94.5876
2019-04-26T05:03:05.280Z,94.9371
2019-04-26T05:04:08.301Z,95.5093
2019-04-26T05:05:11.319Z,95.6588
2019-04-26T05:06:14.320Z,95.6741
2019-04-26T05:07:17.345Z,94.8852
2019-04-26T05:08:20.310Z,94.8272
2019-04-26T05:09:23.263Z,94.3816
2019-04-26T05:10:26.330Z,94.7433
2019-04-26T05:11:29.269Z,95.3262
2019-04-26T05:12:32.315Z,95.5673
2019-04-26T05:13:35.296Z,95.6542
2019-04-26T05:14:38.313Z,95.7824
2019-04-26T05:15:41.306Z,95.5596
2019-04-26T05:16:44.986Z,95.4406
2019-04-26T05:17:49.476Z,95.3750
2019-04-26T05:18:51.334Z,95.5230
2019-04-26T05:19:54.872Z,95.2071
2019-04-26T05:20:58.304Z,94.5708
2019-04-26T05:22:01.322Z,94.6990
2019-04-26T05:23:04.389Z,94.3694
2019-04-26T05:24:07.269Z,94.7616
2019-04-26T05:25:10.323Z,94.3404
2019-04-26T05:26:13.369Z,94.6792
2019-04-26T05:27:16.351Z,94.2443
2019-04-26T05:28:19.287Z,94.7768
2019-04-26T05:29:21.335Z,95.2514
2019-04-26T05:30:24.393Z,95.1980
2019-04-26T05:31:27.324Z,95.4665
2019-04-26T05:32:30.271Z,95.1782
2019-04-26T05:33:33.290Z,95.4849
2019-04-26T05:34:36.326Z,95.9197
2019-04-26T05:35:39.355Z,95.6741
2019-04-26T05:36:42.343Z,95.6832
2019-04-26T05:37:45.302Z,95.7153
2019-04-26T05:38:49.248Z,95.2560
2019-04-26T05:39:53.202Z,95.2438
2019-04-26T05:40:56.345Z,95.7885
2019-04-26T05:41:59.266Z,95.2575
2019-04-26T05:43:02.307Z,95.4208
2019-04-26T05:44:05.320Z,95.5047
2019-04-26T05:45:08.287Z,95.2804
2019-04-26T05:46:11.309Z,95.6313
2019-04-26T05:47:14.291Z,95.6512
2019-04-26T05:48:17.310Z,95.7961
2019-04-26T05:49:20.319Z,95.9609
2019-04-26T05:50:23.348Z,96.1318
2019-04-26T05:51:26.304Z,96.0616
2019-04-26T05:52:29.318Z,96.2310
2019-04-26T05:53:32.283Z,96.4202
2019-04-26T05:54:35.267Z,96.3729
2019-04-26T05:55:38.351Z,96.3607
2019-04-26T05:56:41.339Z,96.4599
2019-04-26T05:57:44.318Z,96.2173
2019-04-26T05:58:47.300Z,96.0311
2019-04-26T05:59:50.626Z,96.2585
2019-04-26T06:00:53.925Z,96.5942
2019-04-26T06:01:57.312Z,96.2737
2019-04-26T06:03:01.247Z,96.2829
2019-04-26T06:04:04.310Z,95.8785
2019-04-26T06:05:07.374Z,95.9670
2019-04-26T06:06:10.346Z,96.0861
2019-04-26T06:07:13.297Z,95.4131
2019-04-26T06:08:16.303Z,95.2743
2019-04-26T06:09:19.301Z,94.7707
2019-04-26T06:10:21.346Z,94.6838
2019-04-26T06:11:24.334Z,95.1507
2019-04-26T06:12:27.306Z,95.2148
2019-04-26T06:13:30.319Z,95.4681
2019-04-26T06:14:33.310Z,94.9691
2019-04-26T06:15:36.334Z,95.2850
2019-04-26T06:16:39.308Z,95.6878
2019-04-26T06:17:42.297Z,94.6563
2019-04-26T06:18:45.303Z,93.6126
2019-04-26T06:19:48.359Z,93.5348
2019-04-26T06:20:51.192Z,92.8985
2019-04-26T06:21:55.873Z,92.9671
2019-04-26T06:23:00.478Z,93.0968
2019-04-26T06:24:03.344Z,93.2662
2019-04-26T06:25:06.294Z,93.6141
2019-04-26T06:26:09.375Z,93.7545
2019-04-26T06:27:14.288Z,93.5576
2019-04-26T06:28:17.327Z,93.4524
2019-04-26T06:29:19.311Z,92.5658
2019-04-26T06:30:23.387Z,93.2784
2019-04-26T06:31:25.323Z,92.9274
2019-04-26T06:32:28.391Z,93.2708
2019-04-26T06:33:31.264Z,94.1665
2019-04-26T06:34:34.277Z,94.6700
2019-04-26T06:35:37.365Z,94.2229
2019-04-26T06:36:40.270Z,94.3175
2019-04-26T06:37:43.296Z,94.7662
2019-04-26T06:38:45.326Z,95.0225
2019-04-26T06:39:47.536Z,95.4253
2019-04-26T06:40:49.636Z,95.1614
2019-04-26T06:41:52.341Z,95.0957
2019-04-26T06:42:56.187Z,95.0500
2019-04-26T06:44:00.356Z,94.4594
2019-04-26T06:45:03.307Z,94.6487
2019-04-26T06:46:06.299Z,94.9218
2019-04-26T06:47:09.324Z,95.0362
2019-04-26T06:48:12.335Z,95.1873
2019-04-26T06:49:15.315Z,95.4665
2019-04-26T06:50:18.303Z,95.9991
2019-04-26T06:51:24.546Z,95.5489
2019-04-26T06:52:28.316Z,95.3765
2019-04-26T06:53:31.295Z,95.7916
2019-04-26T06:54:34.303Z,95.6466
2019-04-26T06:55:37.282Z,95.6283
2019-04-26T06:56:40.367Z,95.9899
2019-04-26T06:57:43.269Z,95.6695
2019-04-26T06:58:46.314Z,96.1395
2019-04-26T06:59:49.330Z,96.0586
2019-04-26T07:00:54.362Z,95.8205
2019-04-26T07:01:57.979Z,95.8663
2019-04-26T07:03:03.554Z,96.0357
2019-04-26T07:04:07.311Z,96.4828
2019-04-26T07:05:10.380Z,96.0266
2019-04-26T07:06:13.319Z,95.9380
2019-04-26T07:07:16.336Z,95.8434
2019-04-26T07:08:19.320Z,95.8053
2019-04-26T07:09:22.310Z,95.8389
2019-04-26T07:10:25.311Z,95.5810
2019-04-26T07:11:28.343Z,95.8785
2019-04-26T07:12:30.360Z,95.9426
2019-04-26T07:13:33.279Z,95.5138
2019-04-26T07:14:36.328Z,95.5001
2019-04-26T07:15:39.293Z,96.1364
2019-04-26T07:16:42.278Z,96.0082
2019-04-26T07:17:45.305Z,96.2554
2019-04-26T07:18:48.303Z,96.1593
2019-04-26T07:19:51.287Z,95.9518
2019-04-26T07:20:54.315Z,95.1247
2019-04-26T07:21:56.374Z,95.2941
2019-04-26T07:22:59.382Z,95.6176
2019-04-26T07:24:02.889Z,95.1919
2019-04-26T07:25:07.369Z,95.1003
2019-04-26T07:26:10.334Z,95.2377
2019-04-26T07:27:13.326Z,95.6420
2019-04-26T07:28:16.344Z,96.1486
2019-04-26T07:29:19.348Z,96.0174
2019-04-26T07:30:22.356Z,96.3912
2019-04-26T07:31:26.395Z,96.2722
2019-04-26T07:32:29.309Z,96.8124
2019-04-26T07:33:32.353Z,96.7407
2019-04-26T07:34:35.302Z,96.5972
2019-04-26T07:35:38.304Z,96.7163
2019-04-26T07:36:41.299Z,96.8261
2019-04-26T07:37:44.326Z,96.3500
2019-04-26T07:38:47.334Z,96.7178
2019-04-26T07:39:50.290Z,96.6613
2019-04-26T07:40:53.338Z,96.2875
2019-04-26T07:41:57.298Z,96.1089
2019-04-26T07:42:59.414Z,95.7656
2019-04-26T07:44:03.547Z,95.5444
2019-04-26T07:45:07.544Z,96.2768
2019-04-26T07:46:10.664Z,96.5469
2019-04-26T07:47:15.347Z,96.6537
2019-04-26T07:48:18.338Z,96.7849
2019-04-26T07:49:21.303Z,96.5713
2019-04-26T07:50:24.331Z,96.8124
2019-04-26T07:51:27.284Z,97.1115
2019-04-26T07:52:30.355Z,96.6857
2019-04-26T07:53:33.310Z,96.9192
2019-04-26T07:54:36.309Z,97.1847
2019-04-26T07:55:39.301Z,97.0977
2019-04-26T07:56:42.313Z,96.9177
2019-04-26T07:57:45.355Z,96.3272
2019-04-26T07:58:48.301Z,96.3470
2019-04-26T07:59:51.358Z,96.2005
2019-04-26T08:00:54.282Z,96.3882
2019-04-26T08:01:57.324Z,96.6903
2019-04-26T08:03:00.331Z,96.3333
2019-04-26T08:04:03.988Z,96.4370
2019-04-26T08:05:09.417Z,96.4569
2019-04-26T08:06:12.303Z,96.5255
2019-04-26T08:07:15.407Z,96.6583
2019-04-26T08:08:18.368Z,96.0998
2019-04-26T08:09:26.996Z,96.3836
2019-04-26T08:10:29.285Z,96.0479
2019-04-26T08:11:32.320Z,96.3958
2019-04-26T08:12:35.308Z,96.4004
2019-04-26T08:13:38.342Z,96.0266
2019-04-26T08:14:41.276Z,95.6130
2019-04-26T08:15:44.311Z,96.0708
2019-04-26T08:16:47.281Z,96.0662
2019-04-26T08:17:50.350Z,95.8938
2019-04-26T08:18:52.386Z,95.9304
2019-04-26T08:19:57.526Z,95.9701
2019-04-26T08:21:02.572Z,95.5673
2019-04-26T08:22:17.879Z,95.6222
2019-04-26T08:23:38.107Z,96.0815
2019-04-26T08:24:27.865Z,95.7229
2019-04-26T08:25:31.325Z,95.5322
2019-04-26T08:26:34.306Z,95.3353
2019-04-26T08:27:37.344Z,95.3582
2019-04-26T08:28:40.304Z,95.6832
2019-04-26T08:29:43.321Z,96.6888
2019-04-26T08:30:46.355Z,97.1618
2019-04-26T08:31:49.288Z,95.9854
2019-04-26T08:32:52.336Z,96.0388
2019-04-26T08:33:56.349Z,96.2859
2019-04-26T08:35:02.305Z,96.2921
2019-04-26T08:36:08.724Z,95.7473
2019-04-26T08:37:12.663Z,96.0266
2019-04-26T08:38:21.968Z,96.2463
2019-04-26T08:39:29.622Z,96.0662
2019-04-26T08:40:31.509Z,96.2219
2019-04-26T08:41:38.986Z,96.3287
2019-04-26T08:42:42.337Z,96.2875
2019-04-26T08:43:45.281Z,96.4187
2019-04-26T08:44:50.909Z,96.4843
2019-04-26T08:46:02.816Z,95.7778
2019-04-26T08:47:02.324Z,95.5871
2019-04-26T08:48:05.325Z,95.6680
2019-04-26T08:49:09.543Z,95.9625
2019-04-26T08:50:13.697Z,95.8572
2019-04-26T08:51:20.491Z,96.3424
2019-04-26T08:52:25.285Z,96.6491
2019-04-26T08:53:27.380Z,96.7636
2019-04-26T08:54:32.565Z,96.4187
2019-04-26T08:55:36.351Z,96.0632
2019-04-26T08:56:39.312Z,96.4965
2019-04-26T08:57:42.272Z,97.0016
2019-04-26T08:58:45.340Z,96.8261
2019-04-26T08:59:48.295Z,96.2631
2019-04-26T09:00:51.347Z,96.3272
2019-04-26T09:01:54.330Z,96.8734
2019-04-26T09:02:57.336Z,96.2585
2019-04-26T09:04:00.303Z,96.5377
2019-04-26T09:05:03.347Z,96.9696
2019-04-26T09:06:06.317Z,96.9512
2019-04-26T09:07:09.321Z,96.7590
2019-04-26T09:08:12.312Z,96.5988
2019-04-26T09:09:18.184Z,96.4691
2019-04-26T09:10:23.340Z,96.8734
2019-04-26T09:11:33.472Z,97.1511
2019-04-26T09:12:34.312Z,96.6018
2019-04-26T09:13:37.294Z,96.5057
2019-04-26T09:14:40.357Z,96.2829
2019-04-26T09:15:43.313Z,96.6079
2019-04-26T09:16:50.420Z,96.6705
2019-04-26T09:17:54.319Z,96.6705
2019-04-26T09:18:59.583Z,96.9497
2019-04-26T09:20:07.684Z,96.4111
2019-04-26T09:21:13.422Z,96.3882
2019-04-26T09:22:22.529Z,96.6903
2019-04-26T09:23:39.362Z,96.9833
2019-04-26T09:24:35.355Z,96.9497
2019-04-26T09:25:39.301Z,96.7224
2019-04-26T09:26:46.257Z,96.8948
2019-04-26T09:27:50.313Z,97.0886
2019-04-26T09:28:56.588Z,97.0367
2019-04-26T09:30:00.642Z,96.4202
2019-04-26T09:31:07.364Z,96.7758
2019-04-26T09:32:10.281Z,97.1145
2019-04-26T09:33:13.367Z,97.3800
2019-04-26T09:34:16.346Z,97.5235
2019-04-26T09:35:19.309Z,97.4945
2019-04-26T09:36:22.343Z,97.3251
2019-04-26T09:37:25.295Z,97.3343
2019-04-26T09:38:28.353Z,96.6247
2019-04-26T09:39:31.300Z,96.8460
2019-04-26T09:40:34.329Z,96.5988
2019-04-26T09:41:37.323Z,96.6491
2019-04-26T09:42:41.048Z,97.0871
2019-04-26T09:43:44.302Z,96.9909
2019-04-26T09:44:46.345Z,97.3663
2019-04-26T09:45:49.327Z,97.3083
2019-04-26T09:46:52.889Z,96.7041
2019-04-26T09:47:57.306Z,96.8185
2019-04-26T09:49:03.056Z,96.8948
2019-04-26T09:50:11.268Z,97.1557
2019-04-26T09:51:16.276Z,96.8536
2019-04-26T09:52:19.340Z,97.4868
2019-04-26T09:53:22.281Z,97.4166
2019-04-26T09:54:25.333Z,96.8780
2019-04-26T09:55:35.285Z,96.8277
2019-04-26T09:56:36.360Z,96.6125
2019-04-26T09:57:39.348Z,96.8032
2019-04-26T09:58:41.328Z,96.7941
2019-04-26T09:59:44.316Z,97.0153
2019-04-26T10:00:48.617Z,96.7498
2019-04-26T10:01:55.352Z,96.9268
2019-04-26T10:03:01.322Z,96.8994
2019-04-26T10:04:04.325Z,97.1572
2019-04-26T10:05:08.144Z,96.5606
2019-04-26T10:06:14.308Z,96.3836
2019-04-26T10:07:17.443Z,96.8719
2019-04-26T10:08:20.347Z,96.9924
2019-04-26T10:09:23.381Z,97.0871
2019-04-26T10:10:26.297Z,97.0459
2019-04-26T10:11:29.322Z,96.9100
2019-04-26T10:12:32.348Z,96.6079
2019-04-26T10:13:35.358Z,96.5713
2019-04-26T10:14:38.292Z,97.2519
2019-04-26T10:15:41.339Z,97.0382
2019-04-26T10:16:44.317Z,97.1435
2019-04-26T10:17:50.149Z,96.5331
2019-04-26T10:18:54.448Z,96.4752
2019-04-26T10:19:57.329Z,96.7544
2019-04-26T10:21:00.342Z,96.5789
2019-04-26T10:22:05.332Z,96.5026
2019-04-26T10:23:08.324Z,96.5072
2019-04-26T10:24:11.315Z,96.7208
2019-04-26T10:25:16.899Z,96.7178
2019-04-26T10:26:23.314Z,96.3882
2019-04-26T10:27:28.316Z,96.7315
2019-04-26T10:28:31.314Z,97.0062
2019-04-26T10:29:33.314Z,96.5209
2019-04-26T10:30:38.358Z,96.3424
2019-04-26T10:31:43.331Z,96.5164
2019-04-26T10:32:46.353Z,96.1669
2019-04-26T10:33:49.299Z,96.6064
2019-04-26T10:34:52.331Z,96.7590
2019-04-26T10:35:56.617Z,96.3592
2019-04-26T10:37:05.518Z,96.4065
2019-04-26T10:38:09.345Z,96.6705
2019-04-26T10:39:12.298Z,96.5896
2019-04-26T10:40:15.340Z,96.6567
2019-04-26T10:41:18.277Z,96.1959
2019-04-26T10:42:21.312Z,95.5535
2019-04-26T10:43:24.320Z,95.8663
2019-04-26T10:44:27.304Z,95.9991
2019-04-26T10:45:30.290Z,96.3958
2019-04-26T10:46:33.324Z,96.5331
2019-04-26T10:47:38.416Z,95.8968
2019-04-26T10:48:45.598Z,95.4849
2019-04-26T10:49:50.297Z,95.3262
2019-04-26T10:50:53.320Z,95.9976
2019-04-26T10:51:56.323Z,95.5184
2019-04-26T10:52:59.313Z,95.5093
2019-04-26T10:54:01.644Z,96.0220
2019-04-26T10:55:08.309Z,95.8801
2019-04-26T10:56:11.350Z,96.0998
2019-04-26T10:57:14.278Z,96.5026
2019-04-26T10:58:17.337Z,96.0983
2019-04-26T10:59:22.645Z,96.0708
2019-04-26T11:00:26.340Z,96.1898
2019-04-26T11:01:29.278Z,95.6817
2019-04-26T11:02:32.291Z,95.7183
2019-04-26T11:03:35.335Z,96.2463
2019-04-26T11:04:41.565Z,95.7961
2019-04-26T11:05:49.335Z,95.1705
2019-04-26T11:06:54.292Z,95.2712
2019-04-26T11:07:57.341Z,95.2972
2019-04-26T11:08:59.337Z,95.2194
2019-04-26T11:10:02.989Z,94.8394
2019-04-26T11:11:06.270Z,94.9081
2019-04-26T11:12:09.368Z,95.0469
2019-04-26T11:13:11.317Z,95.5184
2019-04-26T11:14:18.347Z,94.9310
2019-04-26T11:15:22.312Z,95.0790
2019-04-26T11:16:25.281Z,95.1797
2019-04-26T11:17:28.321Z,95.3170
2019-04-26T11:18:31.296Z,95.8663
2019-04-26T11:19:35.525Z,95.3521
2019-04-26T11:20:41.362Z,95.2575
2019-04-26T11:21:47.324Z,95.2422
2019-04-26T11:22:50.326Z,94.7906
2019-04-26T11:23:53.322Z,94.8669
2019-04-26T11:24:56.304Z,95.1003
2019-04-26T11:26:01.703Z,95.4849
2019-04-26T11:27:09.702Z,95.9289
2019-04-26T11:28:17.110Z,95.4910
2019-04-26T11:29:24.992Z,95.1659
2019-04-26T11:30:30.344Z,94.4381
2019-04-26T11:31:33.296Z,94.3053
2019-04-26T11:32:36.867Z,94.2855
2019-04-26T11:33:44.935Z,94.5098
2019-04-26T11:34:48.315Z,94.3633
2019-04-26T11:35:51.362Z,95.0835
2019-04-26T11:36:54.298Z,95.1598
2019-04-26T11:37:57.335Z,95.4314
2019-04-26T11:39:01.381Z,95.5215
2019-04-26T11:40:10.205Z,96.0891
2019-04-26T11:41:15.352Z,94.3267
2019-04-26T11:42:18.331Z,95.5184
2019-04-26T11:43:21.330Z,95.3429
2019-04-26T11:44:27.451Z,95.5642
2019-04-26T11:45:31.370Z,94.8440
2019-04-26T11:46:44.162Z,94.6441
2019-04-26T11:47:54.309Z,95.3567
2019-04-26T11:48:58.958Z,95.9838
2019-04-26T11:49:58.408Z,95.2987
2019-04-26T11:51:01.295Z,94.2870
2019-04-26T11:52:04.304Z,94.6029
2019-04-26T11:53:10.200Z,95.1659
2019-04-26T11:54:17.127Z,95.1690
2019-04-26T11:55:25.372Z,95.3719
2019-04-26T11:56:30.316Z,95.7198
2019-04-26T11:57:33.340Z,94.9813
2019-04-26T11:58:36.292Z,94.5571
2019-04-26T11:59:39.329Z,94.9035
2019-04-26T12:00:42.305Z,94.8821
2019-04-26T12:01:45.347Z,95.4452
2019-04-26T12:02:50.793Z,95.1659
2019-04-26T12:03:55.691Z,93.5683
2019-04-26T12:05:02.286Z,93.5439
2019-04-26T12:06:05.318Z,93.2326
2019-04-26T12:07:08.369Z,93.2113
2019-04-26T12:08:11.281Z,93.0556
2019-04-26T12:09:14.320Z,92.9320
2019-04-26T12:10:17.299Z,92.6101
2019-04-26T12:11:26.134Z,93.0907
2019-04-26T12:12:28.296Z,92.7840
2019-04-26T12:13:31.367Z,93.4310
2019-04-26T12:14:34.403Z,93.3761
2019-04-26T12:15:38.981Z,94.5525
2019-04-26T12:16:49.333Z,95.0134
2019-04-26T12:17:58.829Z,93.8338
2019-04-26T12:19:01.320Z,94.3420
2019-04-26T12:20:04.299Z,94.3999
2019-04-26T12:21:07.326Z,92.5154
2019-04-26T12:22:09.993Z,91.7098
2019-04-26T12:23:20.318Z,91.4443
2019-04-26T12:24:21.288Z,92.2362
2019-04-26T12:25:24.359Z,91.8959
2019-04-26T12:26:27.313Z,92.8664
2019-04-26T12:27:30.882Z,92.5780
2019-04-26T12:28:36.245Z,93.0465
2019-04-26T12:29:44.184Z,93.3852
2019-04-26T12:30:54.023Z,91.5129
2019-04-26T12:31:58.346Z,91.8273
2019-04-26T12:33:01.374Z,91.1086
2019-04-26T12:34:04.304Z,91.2978
2019-04-26T12:35:07.316Z,91.7876
2019-04-26T12:36:13.410Z,91.0323
2019-04-26T12:37:19.994Z,90.7027
2019-04-26T12:38:28.364Z,92.2682
2019-04-26T12:39:36.504Z,91.3252
2019-04-26T12:40:42.438Z,92.2301
2019-04-26T12:41:48.315Z,91.3710
2019-04-26T12:42:51.369Z,92.2301
2019-04-26T12:43:54.434Z,92.6253
2019-04-26T12:45:01.350Z,90.3853
2019-04-26T12:46:04.331Z,90.3853
2019-04-26T12:47:07.299Z,90.1122
2019-04-26T12:48:12.461Z,89.4743
2019-04-26T12:49:20.373Z,88.7831